Terminal Aerodrome Forecast
Issued by NWS

Home | Current Version | Previous Version | Text Only | Print | Product List | Glossary On
Versions: 1 2 3 4 5 6 7 8 9 10 11 12 13 14
000
FTUS43 KDDC 210520
TAFGCK
TAF
KGCK 210520Z 2106/2206 04007KT P6SM BKN100
      TEMPO 2110/2113 3SM BR OVC003
     FM211300 02010KT 1/4SM FG OVC003
     FM211500 04011KT 1/2SM FG OVC003
     FM211800 05011KT 1 1/2SM -SN OVC003
     FM212200 01020G30KT 2SM -SN OVC008=

USA.gov is the U.S. government's official web portal to all federal, state and local government web resources and services.